KGOP

Gatesville Municipal Airport

Gatesville, Texas, USA
METAR KGOP 151535Z AUTO 31009G15KT 10SM CLR 07/M07 A3027 RMK AO2
Observed Flight Rules
Dec-15 @ 15:35 UTC (29 minutes ago) Visual Flight Rules
Wind Visibility Clouds
310° at 9 knots
 Gusting to 15 knots
10 miles
  • Clear skies
Temperatures Readings
Current 7°C / 45°F
Dewpoint -7°C / 19°F
Humidity 37%
Altimeter 30.27" Hg
Pressure 1025 hPa
Elevation 276
METAR KGOP 151535Z AUTO 31009G15KT 10SM CLR 07/M07 A3027 RMK AO2
Observed Flight Rules
Dec-15 @ 15:35 UTC
(29 minutes ago)
VFR
Wind Visibility
310° at 9 knots
 Gusting to 15 knots
10 miles
Clouds
  • Clear skies
Temperature Dewpoint
7°C / 45°F -7°C / 19°F
Humidity Altimeter Pressure
37% 30.27" Hg 1025 hPa